Time;durP1;ratioP1;P1;durP2;ratioP2;P2;SDS_P1;SDS_P2;PMS_P1;PMS_P2;Temp;Humidity;BMP_temperature;BMP_pressure;BME280_temperature;BME280_humidity;BME280_pressure;Samples;Min_cycle;Max_cycle;Signal;HPM_P1;HPM_P2
2022/09/07 00:01:22;;;;;;;4.28;3.97;;;;;;;;;;5098683;28;20215;-67
2022/09/07 00:03:49;;;;;;;4.28;3.90;;;;;;;;;;5102983;28;20226;-66
2022/09/07 00:06:17;;;;;;;3.70;3.50;;;;;;;;;;5101573;28;20200;-67
2022/09/07 00:08:45;;;;;;;4.35;4.05;;;;;;;;;;5099545;28;20230;-67
2022/09/07 00:11:14;;;;;;;4.40;4.10;;;;;;;;;;5099322;28;20204;-66
2022/09/07 00:13:42;;;;;;;4.20;3.90;;;;;;;;;;5099214;28;20568;-66
2022/09/07 00:16:12;;;;;;;4.30;4.00;;;;;;;;;;5099391;28;20576;-66
2022/09/07 00:18:40;;;;;;;4.20;3.80;;;;;;;;;;5098834;28;20606;-67
2022/09/07 00:21:08;;;;;;;4.03;3.75;;;;;;;;;;5097894;28;20587;-66
2022/09/07 00:23:37;;;;;;;4.10;3.67;;;;;;;;;;5099961;28;20204;-66
2022/09/07 00:26:05;;;;;;;4.03;3.72;;;;;;;;;;5099690;28;20605;-66
2022/09/07 00:28:34;;;;;;;4.13;3.83;;;;;;;;;;5098992;28;20247;-66
2022/09/07 00:31:02;;;;;;;4.10;3.83;;;;;;;;;;5099379;28;20214;-67
2022/09/07 00:33:31;;;;;;;4.13;3.83;;;;;;;;;;5098566;28;20203;-66
2022/09/07 00:35:58;;;;;;;3.72;3.53;;;;;;;;;;5099384;28;20596;-66
2022/09/07 00:38:26;;;;;;;3.95;3.75;;;;;;;;;;5098645;28;20204;-66
2022/09/07 00:40:54;;;;;;;3.92;3.70;;;;;;;;;;5098897;28;20286;-67
2022/09/07 00:43:30;;;;;;;4.15;3.85;;;;;;;;;;5099290;28;20204;-66
2022/09/07 00:45:58;;;;;;;4.30;4.05;;;;;;;;;;5098881;28;20582;-67
2022/09/07 00:48:27;;;;;;;4.25;3.95;;;;;;;;;;5099117;28;20231;-66
2022/09/07 00:51:00;;;;;;;4.20;3.90;;;;;;;;;;5098788;28;20214;-66
2022/09/07 00:53:29;;;;;;;4.10;3.80;;;;;;;;;;5098883;28;20203;-66
2022/09/07 00:55:57;;;;;;;3.92;3.72;;;;;;;;;;5098183;28;20207;-66
2022/09/07 00:58:25;;;;;;;3.88;3.58;;;;;;;;;;5098357;28;20576;-66
2022/09/07 01:00:54;;;;;;;3.95;3.75;;;;;;;;;;5098058;28;20208;-66
2022/09/07 01:03:24;;;;;;;4.00;3.80;;;;;;;;;;5097992;28;20265;-66
2022/09/07 01:05:54;;;;;;;4.43;4.13;;;;;;;;;;5098049;28;20215;-66
2022/09/07 01:08:24;;;;;;;4.13;3.83;;;;;;;;;;5097879;28;20588;-66
2022/09/07 01:10:51;;;;;;;4.22;3.92;;;;;;;;;;5098024;28;20195;-66
2022/09/07 01:13:18;;;;;;;4.00;3.70;;;;;;;;;;5098029;28;20211;-66
2022/09/07 01:15:47;;;;;;;4.03;3.75;;;;;;;;;;5097832;28;20611;-66
2022/09/07 01:18:20;;;;;;;4.25;3.95;;;;;;;;;;5098047;28;20230;-66
2022/09/07 01:20:59;;;;;;;4.28;3.90;;;;;;;;;;5098058;28;20490;-67
2022/09/07 01:23:42;;;;;;;4.18;3.80;;;;;;;;;;5098283;28;20241;-67
2022/09/07 01:26:27;;;;;;;3.85;3.65;;;;;;;;;;5097523;28;20204;-68
2022/09/07 01:28:59;;;;;;;3.72;3.53;;;;;;;;;;5097427;28;20592;-68
2022/09/07 01:31:30;;;;;;;3.90;3.60;;;;;;;;;;5097336;28;20214;-67
2022/09/07 01:34:02;;;;;;;3.80;3.60;;;;;;;;;;5097552;28;20211;-67
2022/09/07 01:36:32;;;;;;;3.85;3.60;;;;;;;;;;5097275;28;20619;-67
2022/09/07 01:39:01;;;;;;;4.20;3.78;;;;;;;;;;5097161;28;20203;-67
2022/09/07 01:41:31;;;;;;;3.85;3.65;;;;;;;;;;5097546;28;20572;-67
2022/09/07 01:44:03;;;;;;;4.50;3.80;;;;;;;;;;5097422;28;20246;-67
2022/09/07 01:46:32;;;;;;;4.18;3.88;;;;;;;;;;5097010;28;20568;-67
2022/09/07 01:49:02;;;;;;;3.88;3.58;;;;;;;;;;5098138;28;20577;-67
2022/09/07 01:51:32;;;;;;;3.95;3.65;;;;;;;;;;5096201;28;20213;-66
2022/09/07 01:54:03;;;;;;;3.80;3.50;;;;;;;;;;5096553;28;20204;-67
2022/09/07 01:56:33;;;;;;;3.70;3.50;;;;;;;;;;5096250;28;20241;-67
2022/09/07 01:59:04;;;;;;;3.90;3.70;;;;;;;;;;5097570;28;20203;-66
2022/09/07 02:01:33;;;;;;;3.80;3.60;;;;;;;;;;5096744;28;20203;-67
2022/09/07 02:04:01;;;;;;;3.72;3.53;;;;;;;;;;5096851;28;20203;-67
2022/09/07 02:06:35;;;;;;;3.65;3.45;;;;;;;;;;5097344;28;20203;-66
2022/09/07 02:09:05;;;;;;;4.03;3.72;;;;;;;;;;5096624;28;20230;-67
2022/09/07 02:11:35;;;;;;;4.07;3.80;;;;;;;;;;5096915;28;20222;-66
2022/09/07 02:14:09;;;;;;;3.75;3.45;;;;;;;;;;5096392;28;20203;-66
2022/09/07 02:16:40;;;;;;;3.70;3.47;;;;;;;;;;5096622;28;20314;-66
2022/09/07 02:19:10;;;;;;;3.60;3.40;;;;;;;;;;5096549;28;20203;-67
2022/09/07 02:21:40;;;;;;;3.72;3.47;;;;;;;;;;5096629;28;20238;-66
2022/09/07 02:24:10;;;;;;;4.05;3.75;;;;;;;;;;5096857;28;20492;-66
2022/09/07 02:26:39;;;;;;;3.83;3.58;;;;;;;;;;5096398;28;20253;-67
2022/09/07 02:29:09;;;;;;;3.97;3.78;;;;;;;;;;5096181;28;20203;-67
2022/09/07 02:31:36;;;;;;;3.90;3.70;;;;;;;;;;5096497;28;20203;-67
2022/09/07 02:34:04;;;;;;;4.07;3.78;;;;;;;;;;5096510;28;20214;-66
2022/09/07 02:36:34;;;;;;;3.90;3.60;;;;;;;;;;5096992;28;20196;-67
2022/09/07 02:39:01;;;;;;;3.67;3.47;;;;;;;;;;5096075;28;20238;-67
2022/09/07 02:41:30;;;;;;;3.83;3.63;;;;;;;;;;5096521;28;20195;-67
2022/09/07 02:43:57;;;;;;;3.75;3.53;;;;;;;;;;5097130;28;20203;-67
2022/09/07 02:46:33;;;;;;;3.55;3.35;;;;;;;;;;5100797;28;20203;-66
2022/09/07 02:49:05;;;;;;;4.03;3.63;;;;;;;;;;5100390;28;20204;-66
2022/09/07 02:51:37;;;;;;;3.97;3.67;;;;;;;;;;5100735;28;20203;-67
2022/09/07 02:54:10;;;;;;;3.97;3.67;;;;;;;;;;5100467;28;20207;-66
2022/09/07 02:56:46;;;;;;;3.60;3.40;;;;;;;;;;5100377;28;20203;-67
2022/09/07 02:59:18;;;;;;;3.85;3.65;;;;;;;;;;5100320;28;20203;-67
2022/09/07 03:01:55;;;;;;;3.83;3.63;;;;;;;;;;5101205;28;20213;-66
2022/09/07 03:04:25;;;;;;;3.95;3.65;;;;;;;;;;5100477;28;20203;-66
2022/09/07 03:06:55;;;;;;;3.53;3.33;;;;;;;;;;5100374;28;20200;-66
2022/09/07 03:09:26;;;;;;;3.58;3.38;;;;;;;;;;5100259;28;20204;-67
2022/09/07 03:11:54;;;;;;;3.50;3.30;;;;;;;;;;5100020;28;20215;-66
2022/09/07 03:14:23;;;;;;;3.63;3.38;;;;;;;;;;5100261;28;20204;-66
2022/09/07 03:16:54;;;;;;;3.67;3.47;;;;;;;;;;5099728;28;20203;-66
2022/09/07 03:19:21;;;;;;;3.95;3.65;;;;;;;;;;5099214;28;20214;-66
2022/09/07 03:21:49;;;;;;;3.70;3.50;;;;;;;;;;5099028;28;20473;-66
2022/09/07 03:24:16;;;;;;;3.95;3.65;;;;;;;;;;5099183;28;20220;-66
2022/09/07 03:26:45;;;;;;;3.72;3.53;;;;;;;;;;5099417;28;20199;-66
2022/09/07 03:29:12;;;;;;;4.18;3.92;;;;;;;;;;5098631;28;20211;-67
2022/09/07 03:31:39;;;;;;;4.00;3.70;;;;;;;;;;5099301;28;20203;-66
2022/09/07 03:34:08;;;;;;;4.20;4.00;;;;;;;;;;5098389;28;20214;-67
2022/09/07 03:36:36;;;;;;;4.00;3.80;;;;;;;;;;5099251;28;20210;-67
2022/09/07 03:39:04;;;;;;;4.10;3.80;;;;;;;;;;5098176;28;20227;-66
2022/09/07 03:41:31;;;;;;;3.85;3.55;;;;;;;;;;5098857;28;20203;-66
2022/09/07 03:44:02;;;;;;;4.00;3.70;;;;;;;;;;5097467;28;20413;-66
2022/09/07 03:46:30;;;;;;;4.40;4.10;;;;;;;;;;5097863;28;20196;-66
2022/09/07 03:48:57;;;;;;;4.05;3.75;;;;;;;;;;5098106;28;20599;-66
2022/09/07 03:51:26;;;;;;;4.28;3.97;;;;;;;;;;5098879;28;20286;-67
2022/09/07 03:53:55;;;;;;;3.42;3.22;;;;;;;;;;5097740;28;20203;-66
2022/09/07 03:56:23;;;;;;;3.88;3.67;;;;;;;;;;5098115;28;20203;-66
2022/09/07 03:58:51;;;;;;;3.85;3.65;;;;;;;;;;5098279;28;20242;-66
2022/09/07 04:01:19;;;;;;;3.83;3.63;;;;;;;;;;5098375;28;20218;-67
2022/09/07 04:03:47;;;;;;;3.63;3.42;;;;;;;;;;5098054;28;20204;-66
2022/09/07 04:06:14;;;;;;;4.03;3.72;;;;;;;;;;5096986;28;20211;-67
2022/09/07 04:08:44;;;;;;;4.18;3.90;;;;;;;;;;5098078;28;20226;-66
2022/09/07 04:11:13;;;;;;;4.30;4.00;;;;;;;;;;5097694;28;20196;-66
2022/09/07 04:13:42;;;;;;;4.20;3.90;;;;;;;;;;5097790;28;20204;-66
2022/09/07 04:16:10;;;;;;;3.90;3.67;;;;;;;;;;5097817;28;20213;-66
2022/09/07 04:18:38;;;;;;;3.95;3.75;;;;;;;;;;5097950;28;20682;-66
2022/09/07 04:21:05;;;;;;;3.83;3.53;;;;;;;;;;5096975;28;20294;-66
2022/09/07 04:23:33;;;;;;;4.15;3.80;;;;;;;;;;5097401;28;20576;-66
2022/09/07 04:26:02;;;;;;;3.65;3.38;;;;;;;;;;5096181;28;20213;-66
2022/09/07 04:28:29;;;;;;;3.80;3.50;;;;;;;;;;5096520;28;20603;-66
2022/09/07 04:31:00;;;;;;;4.30;4.00;;;;;;;;;;5095921;28;20235;-67
2022/09/07 04:33:27;;;;;;;3.90;3.60;;;;;;;;;;5095599;28;20204;-66
2022/09/07 04:35:54;;;;;;;3.60;3.40;;;;;;;;;;5096469;28;20196;-65
2022/09/07 04:38:22;;;;;;;3.85;3.60;;;;;;;;;;5096446;28;20227;-65
2022/09/07 04:40:49;;;;;;;3.80;3.50;;;;;;;;;;5095904;28;20211;-65
2022/09/07 04:43:18;;;;;;;3.72;3.42;;;;;;;;;;5096298;28;20203;-67
2022/09/07 04:45:45;;;;;;;4.03;3.72;;;;;;;;;;5095090;28;20218;-65
2022/09/07 04:48:13;;;;;;;3.92;3.72;;;;;;;;;;5095593;28;20236;-65
2022/09/07 04:50:40;;;;;;;3.60;3.40;;;;;;;;;;5095279;28;20196;-65
2022/09/07 04:53:07;;;;;;;4.00;3.70;;;;;;;;;;5093976;28;20512;-65
2022/09/07 04:55:35;;;;;;;3.80;3.50;;;;;;;;;;5094126;28;20732;-65
2022/09/07 04:58:02;;;;;;;3.90;3.67;;;;;;;;;;5092297;28;20219;-67
2022/09/07 05:00:31;;;;;;;3.75;3.55;;;;;;;;;;5093099;28;20583;-65
2022/09/07 05:02:59;;;;;;;3.83;3.63;;;;;;;;;;5093014;28;20406;-67
2022/09/07 05:05:26;;;;;;;3.97;3.67;;;;;;;;;;5093154;28;20602;-65
2022/09/07 05:07:54;;;;;;;3.80;3.60;;;;;;;;;;5093142;28;20196;-67
2022/09/07 05:10:21;;;;;;;3.72;3.53;;;;;;;;;;5093801;28;20195;-66
2022/09/07 05:12:51;;;;;;;3.78;3.40;;;;;;;;;;5093401;28;20203;-65
2022/09/07 05:15:18;;;;;;;3.75;3.55;;;;;;;;;;5092750;28;20207;-65
2022/09/07 05:17:48;;;;;;;3.90;3.70;;;;;;;;;;5092065;28;20219;-65
2022/09/07 05:20:18;;;;;;;3.83;3.60;;;;;;;;;;5094251;28;20204;-66
2022/09/07 05:22:46;;;;;;;3.58;3.38;;;;;;;;;;5093636;28;20286;-65
2022/09/07 05:25:13;;;;;;;3.47;3.28;;;;;;;;;;5093478;28;20383;-65
2022/09/07 05:27:41;;;;;;;3.75;3.55;;;;;;;;;;5092817;28;20199;-67
2022/09/07 05:30:09;;;;;;;3.67;3.47;;;;;;;;;;5094313;28;20203;-66
2022/09/07 05:32:36;;;;;;;3.70;3.50;;;;;;;;;;5093223;28;20287;-65
2022/09/07 05:35:06;;;;;;;4.13;3.85;;;;;;;;;;5093402;28;20510;-67
2022/09/07 05:37:33;;;;;;;3.72;3.53;;;;;;;;;;5093232;28;20195;-65
2022/09/07 05:40:01;;;;;;;4.05;3.75;;;;;;;;;;5093327;28;20196;-65
2022/09/07 05:42:29;;;;;;;3.72;3.42;;;;;;;;;;5092551;28;20214;-65
2022/09/07 05:44:56;;;;;;;3.60;3.40;;;;;;;;;;5093510;28;20222;-65
2022/09/07 05:47:23;;;;;;;4.00;3.65;;;;;;;;;;5093662;28;20272;-68
2022/09/07 05:49:54;;;;;;;3.80;3.60;;;;;;;;;;5092906;28;20211;-66
2022/09/07 05:52:26;;;;;;;3.80;3.50;;;;;;;;;;5093737;28;20226;-65
2022/09/07 05:54:53;;;;;;;3.95;3.65;;;;;;;;;;5093838;28;20306;-65
2022/09/07 05:57:21;;;;;;;4.10;3.80;;;;;;;;;;5094680;28;20195;-65
2022/09/07 05:59:48;;;;;;;4.03;3.47;;;;;;;;;;5092918;28;20227;-66
2022/09/07 06:02:16;;;;;;;4.10;3.80;;;;;;;;;;5094493;28;20196;-67
2022/09/07 06:04:43;;;;;;;4.07;3.78;;;;;;;;;;5094360;28;20608;-65
2022/09/07 06:07:12;;;;;;;5.97;4.18;;;;;;;;;;5094903;28;20199;-65
2022/09/07 06:09:40;;;;;;;4.10;3.60;;;;;;;;;;5094118;28;20280;-68
2022/09/07 06:12:08;;;;;;;4.20;3.80;;;;;;;;;;5094584;28;20200;-65
2022/09/07 06:14:35;;;;;;;4.30;4.00;;;;;;;;;;5092715;28;20191;-65
2022/09/07 06:17:03;;;;;;;4.15;3.85;;;;;;;;;;5082467;28;20192;-65
2022/09/07 06:19:30;;;;;;;4.68;4.28;;;;;;;;;;5074704;28;20782;-65
2022/09/07 06:21:58;;;;;;;4.22;3.88;;;;;;;;;;5074191;28;20211;-66
2022/09/07 06:24:25;;;;;;;4.75;4.35;;;;;;;;;;5074192;28;20212;-65
2022/09/07 06:26:54;;;;;;;4.45;3.90;;;;;;;;;;5074011;28;20205;-65
2022/09/07 06:29:21;;;;;;;4.10;3.80;;;;;;;;;;5073543;28;20203;-65
2022/09/07 06:31:48;;;;;;;4.00;3.70;;;;;;;;;;5074303;28;20784;-65
2022/09/07 06:34:16;;;;;;;4.43;4.13;;;;;;;;;;5073952;28;20218;-64
2022/09/07 06:36:43;;;;;;;4.45;4.15;;;;;;;;;;5073946;28;20200;-64
2022/09/07 06:39:10;;;;;;;6.68;4.70;;;;;;;;;;5073627;28;20632;-66
2022/09/07 06:41:38;;;;;;;4.32;3.85;;;;;;;;;;5081700;28;20206;-66
2022/09/07 06:44:06;;;;;;;4.30;3.90;;;;;;;;;;5094462;28;20203;-64
2022/09/07 06:46:34;;;;;;;4.60;4.20;;;;;;;;;;5094046;28;20531;-64
2022/09/07 06:49:01;;;;;;;4.38;4.03;;;;;;;;;;5094183;28;20200;-65
2022/09/07 06:51:30;;;;;;;4.47;4.07;;;;;;;;;;5089111;28;20200;-65
2022/09/07 06:54:00;;;;;;;5.32;4.25;;;;;;;;;;5074679;28;20214;-64
2022/09/07 06:56:28;;;;;;;4.18;3.83;;;;;;;;;;5074632;28;20207;-64
2022/09/07 06:58:56;;;;;;;4.30;3.40;;;;;;;;;;5074278;28;20259;-64
2022/09/07 07:01:25;;;;;;;4.25;3.95;;;;;;;;;;5074527;28;20615;-64
2022/09/07 07:03:54;;;;;;;4.07;3.70;;;;;;;;;;5074195;28;20219;-64
2022/09/07 07:06:21;;;;;;;4.20;3.90;;;;;;;;;;5074726;28;20213;-64
2022/09/07 07:08:49;;;;;;;4.13;3.83;;;;;;;;;;5082969;28;20195;-67
2022/09/07 07:11:16;;;;;;;4.53;3.80;;;;;;;;;;5093923;28;20200;-64
2022/09/07 07:13:44;;;;;;;4.40;4.00;;;;;;;;;;5094187;28;20532;-64
2022/09/07 07:16:13;;;;;;;4.32;4.03;;;;;;;;;;5094975;28;20784;-64
2022/09/07 07:18:42;;;;;;;4.18;3.80;;;;;;;;;;5094140;28;20273;-64
2022/09/07 07:21:10;;;;;;;4.28;3.88;;;;;;;;;;5094386;28;20199;-64
2022/09/07 07:23:38;;;;;;;4.63;4.10;;;;;;;;;;5093976;28;20477;-64
2022/09/07 07:26:06;;;;;;;4.20;3.90;;;;;;;;;;5093967;28;20213;-67
2022/09/07 07:28:33;;;;;;;4.20;3.90;;;;;;;;;;5094514;28;20473;-65
2022/09/07 07:31:01;;;;;;;4.93;4.05;;;;;;;;;;5097559;28;20204;-66
2022/09/07 07:33:30;;;;;;;4.32;3.92;;;;;;;;;;5097681;28;20214;-64
2022/09/07 07:36:08;;;;;;;3.83;3.53;;;;;;;;;;5092728;28;20255;-64
2022/09/07 07:38:36;;;;;;;4.13;3.72;;;;;;;;;;5077767;28;20224;-65
2022/09/07 07:41:04;;;;;;;4.10;3.70;;;;;;;;;;5077569;28;20208;-65
2022/09/07 07:43:31;;;;;;;4.53;4.13;;;;;;;;;;5077941;28;20510;-64
2022/09/07 07:45:59;;;;;;;3.90;3.50;;;;;;;;;;5077291;28;20250;-66
2022/09/07 07:48:27;;;;;;;4.30;3.90;;;;;;;;;;5076697;28;20236;-64
2022/09/07 07:50:58;;;;;;;4.20;3.90;;;;;;;;;;5076659;28;20592;-64
2022/09/07 07:53:27;;;;;;;4.20;3.88;;;;;;;;;;5077065;28;20204;-64
2022/09/07 07:55:54;;;;;;;4.20;3.88;;;;;;;;;;5077287;28;20231;-65
2022/09/07 07:58:23;;;;;;;4.57;4.18;;;;;;;;;;5077247;28;20239;-67
2022/09/07 08:00:50;;;;;;;4.22;3.83;;;;;;;;;;5077701;28;20216;-65
2022/09/07 08:03:18;;;;;;;4.30;3.90;;;;;;;;;;5076725;28;20691;-64
2022/09/07 08:05:45;;;;;;;4.43;4.13;;;;;;;;;;5076998;28;20208;-64
2022/09/07 08:08:14;;;;;;;4.20;3.80;;;;;;;;;;5076880;28;20205;-67
2022/09/07 08:10:44;;;;;;;4.32;4.03;;;;;;;;;;5076984;28;20201;-65
2022/09/07 08:13:12;;;;;;;4.13;3.72;;;;;;;;;;5076587;28;20208;-64
2022/09/07 08:15:43;;;;;;;4.43;4.03;;;;;;;;;;5077630;28;20569;-64
2022/09/07 08:18:11;;;;;;;4.10;3.80;;;;;;;;;;5076375;28;20223;-67
2022/09/07 08:20:39;;;;;;;4.18;3.80;;;;;;;;;;5076673;28;20216;-64
2022/09/07 08:23:07;;;;;;;4.40;4.00;;;;;;;;;;5076465;28;20204;-67
2022/09/07 08:25:34;;;;;;;4.22;3.90;;;;;;;;;;5075690;28;20212;-65
2022/09/07 08:28:04;;;;;;;5.38;4.05;;;;;;;;;;5075523;28;20204;-65
2022/09/07 08:30:31;;;;;;;4.45;4.05;;;;;;;;;;5077645;28;20203;-64
2022/09/07 08:32:58;;;;;;;4.18;3.78;;;;;;;;;;5095922;28;20218;-64
2022/09/07 08:35:26;;;;;;;4.13;3.83;;;;;;;;;;5096993;28;20473;-64
2022/09/07 08:37:53;;;;;;;4.20;3.90;;;;;;;;;;5096762;28;20214;-64
2022/09/07 08:40:20;;;;;;;4.40;4.10;;;;;;;;;;5095827;28;20226;-64
2022/09/07 08:42:57;;;;;;;4.32;4.03;;;;;;;;;;5094535;28;20208;-66
2022/09/07 08:45:28;;;;;;;4.50;4.20;;;;;;;;;;5096434;28;20200;-66
2022/09/07 08:47:55;;;;;;;4.47;4.07;;;;;;;;;;5096600;28;20322;-66
2022/09/07 08:50:24;;;;;;;4.45;4.05;;;;;;;;;;5095986;28;20206;-67
2022/09/07 08:52:55;;;;;;;4.43;4.03;;;;;;;;;;5095613;28;20222;-66
2022/09/07 08:55:26;;;;;;;4.40;4.10;;;;;;;;;;5095808;28;20216;-66
2022/09/07 08:57:58;;;;;;;4.53;4.22;;;;;;;;;;5095228;28;20203;-66
2022/09/07 09:00:27;;;;;;;5.10;4.70;;;;;;;;;;5081397;28;20220;-66
2022/09/07 09:02:55;;;;;;;4.47;4.18;;;;;;;;;;5096191;28;20689;-66
2022/09/07 09:05:26;;;;;;;4.75;4.38;;;;;;;;;;5096011;28;20236;-66
2022/09/07 09:08:01;;;;;;;4.93;4.53;;;;;;;;;;5095363;28;20235;-66
2022/09/07 09:10:33;;;;;;;4.90;4.50;;;;;;;;;;5095877;28;20524;-66
2022/09/07 09:13:05;;;;;;;4.78;4.43;;;;;;;;;;5095463;28;20214;-66
2022/09/07 09:15:38;;;;;;;4.90;4.50;;;;;;;;;;5095782;28;20214;-66
2022/09/07 09:18:14;;;;;;;4.60;4.30;;;;;;;;;;5095021;28;20204;-66
2022/09/07 09:20:44;;;;;;;4.10;3.80;;;;;;;;;;5095332;28;20237;-67
2022/09/07 09:23:13;;;;;;;4.90;4.50;;;;;;;;;;5095683;28;20218;-66
2022/09/07 09:25:43;;;;;;;5.07;4.68;;;;;;;;;;5089861;28;20196;-66
2022/09/07 09:28:12;;;;;;;4.90;4.50;;;;;;;;;;5074155;28;20219;-67
2022/09/07 09:30:41;;;;;;;5.03;4.55;;;;;;;;;;5074611;28;20218;-67
2022/09/07 09:33:16;;;;;;;5.05;4.20;;;;;;;;;;5075151;28;20212;-66
2022/09/07 09:35:44;;;;;;;4.55;4.22;;;;;;;;;;5075440;28;20212;-65
2022/09/07 09:38:36;;;;;;;6.30;4.70;;;;;;;;;;5074887;28;20208;-66
2022/09/07 09:41:04;;;;;;;5.05;4.65;;;;;;;;;;5059773;28;20313;-66
2022/09/07 09:43:35;;;;;;;4.93;4.53;;;;;;;;;;5074349;28;20200;-67
2022/09/07 09:46:14;;;;;;;5.03;4.63;;;;;;;;;;5073345;28;20208;-67
2022/09/07 09:48:41;;;;;;;5.38;4.95;;;;;;;;;;5054247;28;20205;-67
2022/09/07 09:51:09;;;;;;;5.03;4.72;;;;;;;;;;5053885;28;20201;-67
2022/09/07 09:53:39;;;;;;;4.78;4.38;;;;;;;;;;5062007;28;20219;-67
2022/09/07 09:56:07;;;;;;;4.80;4.50;;;;;;;;;;5073561;28;20273;-66
2022/09/07 09:58:36;;;;;;;4.80;4.40;;;;;;;;;;5073810;28;20219;-66
2022/09/07 10:01:05;;;;;;;5.05;4.55;;;;;;;;;;5063324;28;20233;-67
2022/09/07 10:03:33;;;;;;;5.20;4.70;;;;;;;;;;5057349;28;20212;-67
2022/09/07 10:06:02;;;;;;;4.75;4.20;;;;;;;;;;5073378;28;20200;-67
2022/09/07 10:08:31;;;;;;;5.03;4.63;;;;;;;;;;5073819;28;20215;-67
2022/09/07 10:11:00;;;;;;;4.88;4.50;;;;;;;;;;5073587;28;20249;-66
2022/09/07 10:13:31;;;;;;;4.90;4.60;;;;;;;;;;5073832;28;20212;-67
2022/09/07 10:15:59;;;;;;;4.97;4.57;;;;;;;;;;5073304;28;20487;-67
2022/09/07 10:18:32;;;;;;;5.20;4.80;;;;;;;;;;5072655;28;20204;-66
2022/09/07 10:21:22;;;;;;;5.13;4.75;;;;;;;;;;5072896;28;20224;-67
2022/09/07 10:23:53;;;;;;;5.10;4.65;;;;;;;;;;5072753;28;20212;-67
2022/09/07 10:26:22;;;;;;;4.95;4.55;;;;;;;;;;5073230;28;20488;-66
2022/09/07 10:29:06;;;;;;;4.93;4.57;;;;;;;;;;5073104;28;20462;-66
2022/09/07 10:31:36;;;;;;;4.65;4.22;;;;;;;;;;5072977;28;20460;-68
2022/09/07 10:34:09;;;;;;;5.00;4.60;;;;;;;;;;5073324;28;20204;-66
2022/09/07 10:36:39;;;;;;;4.25;3.95;;;;;;;;;;5072354;28;20482;-66
2022/09/07 10:39:07;;;;;;;4.60;4.30;;;;;;;;;;5072749;28;20201;-67
2022/09/07 10:41:41;;;;;;;4.95;4.55;;;;;;;;;;5055228;28;20501;-66
2022/09/07 10:44:14;;;;;;;4.25;3.95;;;;;;;;;;5052945;28;20197;-67
2022/09/07 10:46:47;;;;;;;4.50;4.05;;;;;;;;;;5059961;28;20239;-68
2022/09/07 10:49:22;;;;;;;4.40;4.00;;;;;;;;;;5078537;28;20196;-67
2022/09/07 10:51:57;;;;;;;4.47;4.07;;;;;;;;;;5073495;28;20218;-67
2022/09/07 10:54:29;;;;;;;4.38;3.97;;;;;;;;;;5072635;28;20231;-67
2022/09/07 10:57:01;;;;;;;4.50;4.10;;;;;;;;;;5073161;28;20592;-65
2022/09/07 10:59:35;;;;;;;4.50;4.20;;;;;;;;;;5073185;28;20224;-66
2022/09/07 11:02:05;;;;;;;4.13;3.72;;;;;;;;;;5072933;28;20204;-67
2022/09/07 11:04:43;;;;;;;4.50;4.10;;;;;;;;;;5073058;28;20520;-66
2022/09/07 11:07:20;;;;;;;4.30;4.00;;;;;;;;;;5075848;28;20302;-65
2022/09/07 11:09:52;;;;;;;4.43;4.00;;;;;;;;;;5075745;28;20200;-66
2022/09/07 11:12:22;;;;;;;4.05;3.75;;;;;;;;;;5076034;28;20296;-65
2022/09/07 11:14:51;;;;;;;4.20;3.90;;;;;;;;;;5085834;28;20207;-66
2022/09/07 11:17:21;;;;;;;4.35;4.00;;;;;;;;;;5075943;28;20199;-67
2022/09/07 11:19:54;;;;;;;4.15;3.78;;;;;;;;;;5075040;28;20228;-67
2022/09/07 11:22:27;;;;;;;4.15;3.85;;;;;;;;;;5075936;28;20204;-67
2022/09/07 11:24:57;;;;;;;4.20;3.90;;;;;;;;;;5076294;28;20232;-66
2022/09/07 11:27:29;;;;;;;4.13;3.83;;;;;;;;;;5075703;28;20207;-67
2022/09/07 11:30:00;;;;;;;4.18;3.83;;;;;;;;;;5075451;28;20223;-66
2022/09/07 11:32:29;;;;;;;4.07;3.78;;;;;;;;;;5074883;28;20224;-67
2022/09/07 11:35:04;;;;;;;4.20;3.90;;;;;;;;;;5074981;28;20209;-67
2022/09/07 11:37:35;;;;;;;3.83;3.53;;;;;;;;;;5075630;28;20502;-67
2022/09/07 11:40:07;;;;;;;4.00;3.70;;;;;;;;;;5074049;28;20228;-67
2022/09/07 11:42:35;;;;;;;3.88;3.63;;;;;;;;;;5079902;28;20218;-67
2022/09/07 11:45:03;;;;;;;3.88;3.58;;;;;;;;;;5095008;28;20204;-66
2022/09/07 11:47:34;;;;;;;3.83;3.53;;;;;;;;;;5095041;28;20241;-67
2022/09/07 11:50:03;;;;;;;3.60;3.40;;;;;;;;;;5094477;28;20232;-67
2022/09/07 11:52:34;;;;;;;3.80;3.50;;;;;;;;;;5096373;28;20257;-67
2022/09/07 11:55:04;;;;;;;3.55;3.25;;;;;;;;;;5094694;28;20502;-67
2022/09/07 11:57:37;;;;;;;3.67;3.38;;;;;;;;;;5094996;28;20797;-67
2022/09/07 12:00:07;;;;;;;3.50;3.30;;;;;;;;;;5095527;28;20475;-67
2022/09/07 12:02:53;;;;;;;3.53;3.28;;;;;;;;;;5095219;28;20257;-67
2022/09/07 12:05:25;;;;;;;3.65;3.38;;;;;;;;;;5095514;28;20204;-66
2022/09/07 12:07:59;;;;;;;3.88;3.58;;;;;;;;;;5094292;28;20204;-67
2022/09/07 12:10:35;;;;;;;3.65;3.25;;;;;;;;;;5085750;28;20188;-67
2022/09/07 12:13:17;;;;;;;3.60;3.30;;;;;;;;;;5073821;28;20751;-67
2022/09/07 12:15:48;;;;;;;3.40;3.10;;;;;;;;;;5074359;28;20220;-66
2022/09/07 12:18:22;;;;;;;3.33;3.13;;;;;;;;;;5075799;28;20208;-67
2022/09/07 12:20:51;;;;;;;3.63;3.33;;;;;;;;;;5074632;28;20231;-67
2022/09/07 12:23:21;;;;;;;3.35;3.13;;;;;;;;;;5074193;28;20277;-67
2022/09/07 12:25:48;;;;;;;3.30;3.10;;;;;;;;;;5074800;28;20227;-67
2022/09/07 12:28:17;;;;;;;3.58;3.28;;;;;;;;;;5074829;28;20196;-67
2022/09/07 12:30:59;;;;;;;3.17;2.97;;;;;;;;;;5074931;28;20238;-67
2022/09/07 12:33:28;;;;;;;3.30;3.10;;;;;;;;;;5072060;28;20197;-67
2022/09/07 12:35:59;;;;;;;3.28;3.08;;;;;;;;;;5073836;28;20196;-67
2022/09/07 12:38:54;;;;;;;3.53;3.22;;;;;;;;;;5074344;28;20196;-66
2022/09/07 12:41:22;;;;;;;3.63;3.33;;;;;;;;;;5073878;28;20220;-66
2022/09/07 12:43:54;;;;;;;3.20;3.00;;;;;;;;;;5074605;28;20231;-67
2022/09/07 12:46:36;;;;;;;3.47;3.17;;;;;;;;;;5074524;28;20201;-67
2022/09/07 12:49:09;;;;;;;3.40;3.20;;;;;;;;;;5073121;28;20204;-67
2022/09/07 12:51:39;;;;;;;3.22;3.03;;;;;;;;;;5073184;28;20192;-67
2022/09/07 12:54:11;;;;;;;3.45;3.20;;;;;;;;;;5074421;28;20197;-67
2022/09/07 12:56:43;;;;;;;3.25;3.05;;;;;;;;;;5074022;28;20204;-66
2022/09/07 12:59:34;;;;;;;3.40;3.10;;;;;;;;;;5074092;28;20213;-67
2022/09/07 13:02:13;;;;;;;3.50;3.30;;;;;;;;;;5053768;28;20743;-66
2022/09/07 13:04:48;;;;;;;3.50;3.20;;;;;;;;;;5072381;28;20215;-66
2022/09/07 13:07:33;;;;;;;2.95;2.75;;;;;;;;;;5077670;28;20320;-66
2022/09/07 13:10:03;;;;;;;3.05;2.83;;;;;;;;;;5092454;28;20209;-66
2022/09/07 13:12:32;;;;;;;3.20;3.00;;;;;;;;;;5094494;28;20767;-67
2022/09/07 13:15:00;;;;;;;3.10;2.90;;;;;;;;;;5092754;28;20271;-65
2022/09/07 13:17:29;;;;;;;2.90;2.70;;;;;;;;;;5094483;28;20764;-67
2022/09/07 13:20:07;;;;;;;3.00;2.80;;;;;;;;;;5094322;28;20276;-66
2022/09/07 13:22:53;;;;;;;3.15;2.95;;;;;;;;;;5093749;28;20203;-66
2022/09/07 13:25:45;;;;;;;3.40;3.10;;;;;;;;;;5094427;28;20219;-67
2022/09/07 13:28:20;;;;;;;3.20;3.00;;;;;;;;;;5092879;28;20215;-67
2022/09/07 13:30:54;;;;;;;3.05;2.83;;;;;;;;;;5094911;28;20226;-67
2022/09/07 13:33:51;;;;;;;3.30;3.00;;;;;;;;;;5093879;28;20231;-66
2022/09/07 13:36:39;;;;;;;2.97;2.78;;;;;;;;;;5072830;28;20204;-66
2022/09/07 13:39:12;;;;;;;2.97;2.63;;;;;;;;;;5072871;28;20196;-67
2022/09/07 13:41:44;;;;;;;3.00;2.80;;;;;;;;;;5073464;28;20235;-67
2022/09/07 13:44:20;;;;;;;2.90;2.70;;;;;;;;;;5072310;28;20200;-67
2022/09/07 13:46:54;;;;;;;3.20;3.00;;;;;;;;;;5072788;28;20234;-66
2022/09/07 13:49:38;;;;;;;2.72;2.53;;;;;;;;;;5073363;28;20212;-67
2022/09/07 13:52:08;;;;;;;3.00;2.80;;;;;;;;;;5073709;28;20201;-67
2022/09/07 13:54:43;;;;;;;2.83;2.60;;;;;;;;;;5072993;28;20204;-67
2022/09/07 13:57:15;;;;;;;2.70;2.50;;;;;;;;;;5071925;28;20214;-67
2022/09/07 13:59:43;;;;;;;3.00;2.70;;;;;;;;;;5072643;28;20197;-66
2022/09/07 14:02:20;;;;;;;3.00;2.60;;;;;;;;;;5077491;28;20642;-67
2022/09/07 14:04:50;;;;;;;2.70;2.50;;;;;;;;;;5092514;28;20207;-67
2022/09/07 14:07:20;;;;;;;3.00;2.70;;;;;;;;;;5093688;28;20203;-66
2022/09/07 14:09:48;;;;;;;2.90;2.70;;;;;;;;;;5097490;28;20195;-66
2022/09/07 14:12:18;;;;;;;2.63;2.20;;;;;;;;;;5092288;28;20196;-67
2022/09/07 14:14:45;;;;;;;2.88;2.63;;;;;;;;;;5093107;28;20821;-67
2022/09/07 14:17:14;;;;;;;2.60;2.40;;;;;;;;;;5093368;28;20204;-67
2022/09/07 14:19:43;;;;;;;2.72;2.53;;;;;;;;;;5092670;28;20211;-67
2022/09/07 14:22:13;;;;;;;2.50;2.30;;;;;;;;;;5094071;28;20231;-67
2022/09/07 14:24:41;;;;;;;2.58;2.38;;;;;;;;;;5093407;28;20226;-67
2022/09/07 14:27:20;;;;;;;2.60;2.40;;;;;;;;;;5092859;28;20206;-66
2022/09/07 14:29:47;;;;;;;2.40;2.30;;;;;;;;;;5091978;28;20203;-66
2022/09/07 14:32:16;;;;;;;2.47;2.30;;;;;;;;;;5092451;28;20191;-66
2022/09/07 14:34:44;;;;;;;2.53;2.25;;;;;;;;;;5092868;28;20203;-67
2022/09/07 14:37:14;;;;;;;2.65;2.45;;;;;;;;;;5093342;28;20318;-66
2022/09/07 14:39:42;;;;;;;2.60;2.40;;;;;;;;;;5093359;28;20239;-66
2022/09/07 14:42:11;;;;;;;2.80;2.60;;;;;;;;;;5097760;28;20223;-67
2022/09/07 14:44:43;;;;;;;2.40;2.20;;;;;;;;;;5097582;28;20210;-66
2022/09/07 14:47:21;;;;;;;2.60;2.40;;;;;;;;;;5097369;28;20224;-67
2022/09/07 14:49:51;;;;;;;2.60;2.40;;;;;;;;;;5095895;28;20203;-66
2022/09/07 14:52:20;;;;;;;2.70;2.50;;;;;;;;;;5096743;28;20199;-67
2022/09/07 14:54:51;;;;;;;2.35;2.00;;;;;;;;;;5096572;28;20203;-66
2022/09/07 14:57:29;;;;;;;2.78;2.40;;;;;;;;;;5092351;28;20210;-66
2022/09/07 14:59:58;;;;;;;2.85;2.53;;;;;;;;;;5077223;28;20207;-67
2022/09/07 15:02:36;;;;;;;3.00;2.42;;;;;;;;;;5076439;28;20249;-66